Friday, September 21, 2018, 5:34 PM EDT
Back to Local

KWST, Westerly State Airport

Location: Westerly, RI, United States Lat: 41.35
Local Time: 5:34 PM EDT (21:34 GMT) Lon: -71.8
Time Zone: US/Eastern Elev: 82 ft

Show me the last for .
Show Decoded

2018-09-21 16:53 METAR KWST 212053Z AUTO 18011KT 10SM FEW019 OVC045 21/17 A3013 RMK AO2 SLP202
                 T02060167 56026 =
2018-09-21 16:44 METAR KWST 212044Z AUTO 19010KT 10SM SCT019 OVC046 21/16 A3013 RMK AO2 T02060161
                 =
2018-09-21 16:11 METAR KWST 212011Z AUTO 18012KT 10SM BKN020 OVC048 21/16 A3016 RMK AO2 T02060161
                 =
2018-09-21 15:53 METAR KWST 211953Z AUTO 18009KT 10SM SCT019 OVC048 21/16 A3016 RMK AO2 SLP213
                 T02060156 =
2018-09-21 14:53 METAR KWST 211853Z AUTO 17012KT 10SM BKN049 OVC060 21/15 A3017 RMK AO2 PRESFR
                 SLP215 T02060150 =
2018-09-21 13:53 METAR KWST 211753Z AUTO 17009G15KT 10SM CLR 21/15 A3021 RMK AO2 SLP228 T02110150
                 10211 20172 58021 =
2018-09-21 12:53 METAR KWST 211653Z AUTO 16007KT 10SM OVC060 21/14 A3023 RMK AO2 SLP235 T02060144
                 =
2018-09-21 11:53 METAR KWST 211553Z AUTO 18008KT 10SM CLR 21/14 A3026 RMK AO2 SLP245 T02060139 =
2018-09-21 10:53 METAR KWST 211453Z AUTO 15007KT 10SM FEW060 20/14 A3027 RMK AO2 SLP249 T02000139
                 58012 =
2018-09-21 09:53 METAR KWST 211353Z AUTO 12008KT 10SM CLR 20/13 A3029 RMK AO2 SLP256 T02000133 =
2018-09-21 08:53 METAR KWST 211253Z AUTO 14007KT 10SM CLR 19/14 A3030 RMK AO2 SLP261 T01940139 =
2018-09-21 07:53 METAR KWST 211153Z AUTO 08003KT 10SM CLR 18/15 A3030 RMK AO2 SLP261 T01780150
                 10178 20150 51007 =
2018-09-21 06:53 METAR KWST 211053Z AUTO 08003KT 10SM SCT041 15/14 A3030 RMK AO2 SLP260 T01500144
                 =
2018-09-21 06:37 METAR KWST 211037Z AUTO 00000KT 10SM FEW027 OVC041 15/15 A3030 RMK AO2 T01500150
                 =
2018-09-21 05:53 METAR KWST 210953Z AUTO 00000KT 10SM BKN028 16/15 A3029 RMK AO2 SLP257 T01560150
                 =
2018-09-21 05:43 METAR KWST 210943Z AUTO 03003KT 10SM OVC026 16/15 A3028 RMK AO2 T01560150 =
2018-09-21 05:36 METAR KWST 210936Z AUTO 03003KT 10SM SCT024 OVC030 16/15 A3028 RMK AO2 T01610150
                 =
2018-09-21 04:53 METAR KWST 210853Z AUTO 01003KT 10SM BKN022 OVC030 16/15 A3028 RMK AO2 SLP254
                 T01610150 51001 =
2018-09-21 04:01 METAR KWST 210801Z AUTO 05004KT 10SM BKN023 BKN027 OVC055 16/15 A3028 RMK AO2
                 T01560150 =
2018-09-21 03:53 METAR KWST 210753Z AUTO 06003KT 10SM SCT024 OVC055 16/15 A3028 RMK AO2 SLP253
                 T01610150 =
2018-09-21 02:53 METAR KWST 210653Z AUTO 35003KT 10SM BKN021 OVC055 17/15 A3028 RMK AO2 SLP254
                 T01670150 =
2018-09-21 02:39 METAR KWST 210639Z AUTO 34003KT 10SM BKN021 BKN055 17/16 A3028 RMK AO2 T01670156
                 =
2018-09-21 02:09 METAR KWST 210609Z AUTO 12003KT 10SM FEW021 SCT027 BKN055 18/15 A3028 RMK AO2
                 T01780150 =
2018-09-21 01:53 METAR KWST 210553Z AUTO 10007KT 10SM BKN023 OVC029 18/15 A3028 RMK AO2 SLP253
                 T01780150 10183 20167 57006 =
2018-09-21 00:53 METAR KWST 210453Z AUTO 13007KT 10SM BKN020 OVC026 18/15 A3029 RMK AO2 SLP256
                 T01830150 402330144 =
2018-09-20 23:53 METAR KWST 210353Z AUTO 06003KT 10SM BKN017 OVC055 17/15 A3029 RMK AO2 SLP255
                 T01720150 =
2018-09-20 22:53 METAR KWST 210253Z AUTO 04004KT 10SM OVC055 17/15 A3030 RMK AO2 SLP259 T01670150
                 50008 =
2018-09-20 21:53 METAR KWST 210153Z AUTO 04003KT 10SM BKN033 OVC050 17/15 A3030 RMK AO2 SLP260
                 T01670150 =
2018-09-20 20:53 METAR KWST 210053Z AUTO 02003KT 10SM SCT020 SCT032 OVC050 17/16 A3029 RMK AO2
                 SLP255 T01720156 =
2018-09-20 20:20 METAR KWST 210020Z AUTO 05003KT 10SM FEW026 OVC050 17/16 A3027 RMK AO2 T01720156
                 =
2018-09-20 20:00 METAR KWST 210000Z AUTO 05003KT 10SM BKN026 OVC050 17/16 A3027 RMK AO2 T01720156
                 =
2018-09-20 19:53 METAR KWST 202353Z AUTO 00000KT 10SM SCT025 OVC050 17/16 A3027 RMK AO2 SLP251
                 T01720156 10233 20172 53015 =
2018-09-20 18:53 METAR KWST 202253Z AUTO 06004KT 10SM BKN048 18/16 A3026 RMK AO2 SLP244 T01780156
                 =
2018-09-20 17:53 METAR KWST 202153Z AUTO 07007KT 10SM SCT021 BKN030 OVC046 19/16 A3024 RMK AO2
                 SLP240 T01940156 =
2018-09-20 17:45 METAR KWST 202145Z AUTO 08006KT 10SM BKN022 BKN027 20/16 A3024 RMK AO2 T02000156
                 =

Support USWX by starting your Amazon purchase here.